SAVT/REL METAR and TAF weather

Enter ICAO airport designator
Station Type Date Time Source
SAVT METAR 2019/10/21 19:14 UTC NOAA

SAVT 211914Z 23022KT 9999 -SHRA FEW032 BKN100 14/04 Q1015


Station Type Date Time Source
SAVT Decoded METAR 2019/10/21 19:14 UTC NOAA

Trelew Aerodrome, Argentina (SAVT) 43-12S 065-16W 43M
Oct 21, 2019 - 03:14 PM EDT / 2019.10.21 1914 UTC
Wind: from the SW (230 degrees) at 25 MPH (22 KT):0
Visibility: greater than 7 mile(s):0
Sky conditions: mostly cloudy
Weather: light rain showers
Temperature: 57 F (14 C)
Dew Point: 39 F (4 C)
Relative Humidity: 50%
Pressure (altimeter): 29.97 in. Hg (1015 hPa)
ob: SAVT 211914Z 23022KT 9999 -SHRA FEW032 BKN100 14/04 Q1015
cycle: 19

Station Type Date Time Source
SAVT TAF 2019/04/29 08:53 UTC NOAA

TAF
AMD SAVT 290800Z 2908/3006 27025G40KT 9999 SCT020 BKN035 TX16/2919Z TN07/3006Z
TEMPO 2911/2914 7000 -SHRA OVC020 SCT030
BECMG 3002/3004 25015KT

Example: see airport list